Terminal Aerodrome Forecast
Issued by NWS

Home | Current Version | Previous Version | Text Only | Print | Product List | Glossary On
Versions: 1 2 3 4 5 6 7 8 9 10 11 12 13 14 15 16 17 18 19 20 21 22 23 24 25
305
FTUS43 KDLH 200222 AAA
TAFHYR
TAF AMD
KHYR 200222Z 2002/2024 14004KT P6SM FEW060
     FM200500 16003KT 2SM -FZDZ BR OVC003
     FM200700 14005KT 1/2SM -FZDZ FG OVC002
     FM201400 14005KT 3/4SM -RASN BR OVC006
     FM201900 13004KT 2SM -RA BR OVC010=

USA.gov is the U.S. government's official web portal to all federal, state and local government web resources and services.